Paradise, MI (49768)

5:35 AM EDT on September 01, 2014 (GMT -0400)
RAWS RACO MI US | Change Station
CLOSE
Current Station
Personal Weather Station
Location: Kinross, MI
Elevation: 750 ft
Nearby Weather Stations

Elev 750 ft 46.36 °N, 84.80 °W | Updated 31 minutes ago

Mostly Cloudy
Mostly Cloudy
60 °F
Feels Like 60 °F
N
6
Wind Variable Wind from SSE
Gusts 10.0 mph

Today
High -- | Low -- °F
--% Chance of Precip.
Yesterday
High -- | Low -- °F
Precip. -- in
7:00 AM 8:19 PM
Waxing Crescent, 39% visible
Pressure 29.78 in
Visibility 10.0 miles
Clouds Scattered Clouds 11000 ft
Dew Point 60 °F
Humidity 99%
Rainfall 0.00 in
Snow Depth Not available.
UV 0 out of 12
Pollen 5.60 out of 12
Ozone Good
PM2.5 Good
Flu Activity Not available.
METAR KERY 010914Z AUTO 15010KT 10SM SCT110 17/16 A2978 RMK AO2 T01660162

More Conditions Fewer Conditions

Pressure 29.78 in
Visibility 10.0 miles
Clouds Scattered Clouds 11000 ft
Dew Point 60 °F
Humidity 99%
Rainfall 0.00 in
Snow Depth Not available.
UV 0 out of 12
Pollen 5.60 out of 12
Ozone Good
PM2.5 Good
Flu Activity Not available.
METAR KERY 010914Z AUTO 15010KT 10SM SCT110 17/16 A2978 RMK AO2 T01660162

More Conditions Fewer Conditions

Nowcast | as of 5:00 am EDT on September 1, 2014

At 6 am...partly cloudy. Patchy fog. Temperature 60. East winds 5 mph. At 8 am...cloudy. Temperature 61. East winds 6 mph. At 10 am...mostly cloudy. Temperature 66. Southeast winds 8 mph. At 12 PM...mostly cloudy. Temperature 72. Southeast winds 13 mph.

×

10-Day Weather Forecast

Almanac

Astronomy

Sep. 01, 2014 Rise Set
Actual Time 7:00 AM EDT 8:19 PM EDT
Civil Twilight 6:29 AM EDT 8:50 PM EDT
Nautical Twilight 5:51 AM EDT 9:28 PM EDT
Astronomical Twilight 5:10 AM EDT 10:08 PM EDT
Moon 2:09 PM EDT 11:55 PM EDT
Length of Visible Light 14h 21m
Length of Day
13h 19m
Tomorrow will be 3m 11s shorter.
Waxing Crescent, 39% of the Moon is Illuminated
Today
Waxing Crescent
Sep 2
First Quarter
Sep 8
Full
Sep 15
Last Quarter
Sep 24
New

Today's Extremes

State Highs State Lows

Community

WunderPhotos

Upload Photos

1,749,178 photos uploaded!

Nearby

Air Quality

  Air Quality AQ Index Pollutant
Yesterday Good
OZONE
Yesterday Good
PM2.5
Current Good
PM2.5
Current Good
OZONE
Monday Good
OZONE
Monday Good
PM2.5
Tuesday Good
OZONE
Tuesday Good
PM2.5

Snow Depth

Station Depth Elevation
No new snow has been reported.

Earthquake Activity

City Distance Mag. Time & Date
No recent earthquake activity has been reported nearby.
Minimum magnitude displayed is 2.5.

Coastal Water Temperatures

Place Temperature
S W Pier, MI 61.0 °F
Little Rapids, MI 59.0 °F
Rock Cut, MI 62.1 °F
West Neebish, MI 59.0 °F

Nearby Weather Stations